createdAt,value
2023-02-11T00:00:17.671Z,1.02
2023-02-11T00:02:19.702Z,0.93
2023-02-11T00:04:21.790Z,0.97
2023-02-11T00:06:24.614Z,0.96
2023-02-11T00:08:26.781Z,1.17
2023-02-11T00:10:29.729Z,1.18
2023-02-11T00:12:31.674Z,1.11
2023-02-11T00:14:33.623Z,1.07
2023-02-11T00:16:35.633Z,1.15
2023-02-11T00:18:38.947Z,1.20
2023-02-11T00:20:41.302Z,1.23
2023-02-11T00:22:43.900Z,1.18
2023-02-11T00:24:46.082Z,1.12
2023-02-11T00:26:48.003Z,1.15
2023-02-11T00:28:51.384Z,1.15
2023-02-11T00:31:01.899Z,1.18
2023-02-11T00:33:04.529Z,1.07
2023-02-11T00:35:06.935Z,1.15
2023-02-11T00:37:09.128Z,1.19
2023-02-11T00:39:13.717Z,1.13
2023-02-11T00:41:16.598Z,1.09
2023-02-11T00:43:18.655Z,1.00
2023-02-11T00:45:21.863Z,1.11
2023-02-11T00:47:25.144Z,1.13
2023-02-11T00:49:29.310Z,1.13
2023-02-11T00:51:31.666Z,1.12
2023-02-11T00:53:34.294Z,1.14
2023-02-11T00:55:36.276Z,1.05
2023-02-11T00:57:38.213Z,1.09
2023-02-11T00:59:40.539Z,1.09
2023-02-11T01:01:42.499Z,1.13
2023-02-11T01:03:44.463Z,1.12
2023-02-11T01:05:46.659Z,1.12
2023-02-11T01:07:49.614Z,1.12
2023-02-11T01:09:51.670Z,1.02
2023-02-11T01:11:57.783Z,1.13
2023-02-11T01:13:59.699Z,1.16
2023-02-11T01:16:02.017Z,1.05
2023-02-11T01:18:06.052Z,1.08
2023-02-11T01:20:12.727Z,1.20
2023-02-11T01:22:14.667Z,1.13
2023-02-11T01:24:16.530Z,1.16
2023-02-11T01:26:18.571Z,1.16
2023-02-11T01:28:29.586Z,1.18
2023-02-11T01:30:32.094Z,1.07
2023-02-11T01:32:34.785Z,1.28
2023-02-11T01:34:36.652Z,1.17
2023-02-11T01:36:38.602Z,1.28
2023-02-11T01:38:42.018Z,1.24
2023-02-11T01:40:59.855Z,1.20
2023-02-11T01:43:01.769Z,1.18
2023-02-11T01:45:56.035Z,1.13
2023-02-11T01:47:58.021Z,1.20
2023-02-11T01:50:02.323Z,1.23
2023-02-11T01:52:10.831Z,1.07
2023-02-11T01:54:36.182Z,1.16
2023-02-11T01:57:02.905Z,1.20
2023-02-11T01:59:13.099Z,1.19
2023-02-11T02:01:19.845Z,1.23
2023-02-11T02:03:25.174Z,1.25
2023-02-11T02:05:40.377Z,1.19
2023-02-11T02:07:52.653Z,1.25
2023-02-11T02:10:04.797Z,1.21
2023-02-11T02:12:06.969Z,1.18
2023-02-11T02:14:14.742Z,1.12
2023-02-11T02:16:19.722Z,1.22
2023-02-11T02:18:57.680Z,1.13
2023-02-11T02:21:23.308Z,1.16
2023-02-11T02:23:33.736Z,1.14
2023-02-11T02:25:58.389Z,1.03
2023-02-11T02:28:31.233Z,1.15
2023-02-11T02:31:10.030Z,1.05
2023-02-11T02:33:23.318Z,1.08
2023-02-11T02:35:39.538Z,1.11
2023-02-11T02:38:03.716Z,0.98
2023-02-11T02:40:12.031Z,1.12
2023-02-11T02:42:15.154Z,1.09
2023-02-11T02:44:18.479Z,1.13
2023-02-11T02:46:23.556Z,1.13
2023-02-11T02:48:35.882Z,1.19
2023-02-11T02:50:38.383Z,1.14
2023-02-11T02:53:18.063Z,1.26
2023-02-11T02:55:52.176Z,1.20
2023-02-11T02:58:28.856Z,1.13
2023-02-11T03:00:50.982Z,1.22
2023-02-11T03:03:18.522Z,1.22
2023-02-11T03:06:05.073Z,1.23
2023-02-11T03:08:29.141Z,1.33
2023-02-11T03:10:36.719Z,1.34
2023-02-11T03:12:42.203Z,1.29
2023-02-11T03:14:45.541Z,1.36
2023-02-11T03:16:50.551Z,1.24
2023-02-11T03:19:03.359Z,1.27
2023-02-11T03:21:08.606Z,1.20
2023-02-11T03:23:29.313Z,1.31
2023-02-11T03:25:37.460Z,1.29
2023-02-11T03:27:48.436Z,1.31
2023-02-11T03:30:10.351Z,1.34
2023-02-11T03:32:25.506Z,1.32
2023-02-11T03:34:30.379Z,1.26
2023-02-11T03:37:16.468Z,1.26
2023-02-11T03:39:26.088Z,1.34
2023-02-11T03:41:29.071Z,1.33
2023-02-11T03:43:38.205Z,1.20
2023-02-11T03:45:40.968Z,1.18
2023-02-11T03:47:48.983Z,1.21
2023-02-11T03:49:54.913Z,1.15
2023-02-11T03:52:01.211Z,1.17
2023-02-11T03:54:10.699Z,1.19
2023-02-11T03:56:18.216Z,1.24
2023-02-11T03:58:21.423Z,1.25
2023-02-11T04:00:35.006Z,1.17
2023-02-11T04:02:39.030Z,1.20
2023-02-11T04:04:41.025Z,1.20
2023-02-11T04:06:44.368Z,1.14
2023-02-11T04:08:46.309Z,1.19
2023-02-11T04:10:48.223Z,1.11
2023-02-11T04:12:50.221Z,1.07
2023-02-11T04:14:53.274Z,1.16
2023-02-11T04:16:57.150Z,1.08
2023-02-11T04:18:59.073Z,1.10
2023-02-11T04:21:02.110Z,1.13
2023-02-11T04:23:04.112Z,1.03
2023-02-11T04:25:07.034Z,1.01
2023-02-11T04:27:11.083Z,1.14
2023-02-11T04:29:13.093Z,1.08
2023-02-11T04:31:16.199Z,1.11
2023-02-11T04:33:19.156Z,1.12
2023-02-11T04:35:21.577Z,1.06
2023-02-11T04:37:24.462Z,0.99
2023-02-11T04:39:26.471Z,1.02
2023-02-11T04:41:28.443Z,0.91
2023-02-11T04:43:30.324Z,0.94
2023-02-11T04:45:33.938Z,1.17
2023-02-11T04:47:36.448Z,0.99
2023-02-11T04:49:39.544Z,1.06
2023-02-11T04:51:43.402Z,1.12
2023-02-11T04:53:45.285Z,1.11
2023-02-11T04:55:51.296Z,1.02
2023-02-11T04:57:53.541Z,1.00
2023-02-11T04:59:55.502Z,1.01
2023-02-11T05:01:57.475Z,1.01
2023-02-11T05:03:59.388Z,1.00
2023-02-11T05:06:01.574Z,0.95
2023-02-11T05:08:04.663Z,1.03
2023-02-11T05:10:06.841Z,1.11
2023-02-11T05:12:08.932Z,1.00
2023-02-11T05:14:10.863Z,1.07
2023-02-11T05:16:13.910Z,1.11
2023-02-11T05:18:15.933Z,1.08
2023-02-11T05:20:18.142Z,1.14
2023-02-11T05:22:21.508Z,1.05
2023-02-11T05:24:23.547Z,1.12
2023-02-11T05:26:26.002Z,1.04
2023-02-11T05:28:28.250Z,1.05
2023-02-11T05:30:34.204Z,1.03
2023-02-11T05:32:36.231Z,1.02
2023-02-11T05:34:39.183Z,1.05
2023-02-11T05:36:41.533Z,1.07
2023-02-11T05:38:44.022Z,1.06
2023-02-11T05:40:46.963Z,1.06
2023-02-11T05:42:50.908Z,1.05
2023-02-11T05:44:52.896Z,1.18
2023-02-11T05:46:54.878Z,1.18
2023-02-11T05:49:02.509Z,1.09
2023-02-11T05:51:05.648Z,1.08
2023-02-11T05:53:08.629Z,1.09
2023-02-11T05:55:11.008Z,1.18
2023-02-11T05:57:13.691Z,1.25
2023-02-11T05:59:15.870Z,1.17
2023-02-11T06:01:17.898Z,1.17
2023-02-11T06:03:22.838Z,1.18
2023-02-11T06:05:24.735Z,1.12
2023-02-11T06:07:27.794Z,1.18
2023-02-11T06:09:32.719Z,1.24
2023-02-11T06:11:34.718Z,1.20
2023-02-11T06:13:37.760Z,1.12
2023-02-11T06:15:39.773Z,1.23
2023-02-11T06:17:41.786Z,1.28
2023-02-11T06:19:43.728Z,1.17
2023-02-11T06:21:51.386Z,1.20
2023-02-11T06:23:55.452Z,1.15
2023-02-11T06:26:02.690Z,1.17
2023-02-11T06:28:04.931Z,1.27
2023-02-11T06:30:08.806Z,1.17
2023-02-11T06:32:36.897Z,1.23
2023-02-11T06:34:35.874Z,1.28
2023-02-11T06:36:41.158Z,1.25
2023-02-11T06:38:43.626Z,1.27
2023-02-11T06:40:49.861Z,1.23
2023-02-11T06:42:54.548Z,1.30
2023-02-11T06:44:56.528Z,1.35
2023-02-11T06:46:59.453Z,1.33
2023-02-11T06:49:01.531Z,1.33
2023-02-11T06:51:05.834Z,1.28
2023-02-11T06:53:07.744Z,1.41
2023-02-11T06:55:10.704Z,1.35
2023-02-11T06:57:12.666Z,1.32
2023-02-11T06:59:17.347Z,1.32
2023-02-11T07:01:19.377Z,1.29
2023-02-11T07:03:24.588Z,1.28
2023-02-11T07:05:26.530Z,1.32
2023-02-11T07:07:28.591Z,1.22
2023-02-11T07:09:30.660Z,1.24
2023-02-11T07:11:33.707Z,1.24
2023-02-11T07:13:35.750Z,1.29
2023-02-11T07:15:39.712Z,1.25
2023-02-11T07:17:41.771Z,1.18
2023-02-11T07:19:43.752Z,1.15
2023-02-11T07:21:45.720Z,1.27
2023-02-11T07:23:48.812Z,1.29
2023-02-11T07:25:51.888Z,1.25
2023-02-11T07:27:54.260Z,1.23
2023-02-11T07:29:56.225Z,1.19
2023-02-11T07:32:04.127Z,1.28
2023-02-11T07:34:06.146Z,1.14
2023-02-11T07:36:11.307Z,1.27
2023-02-11T07:38:13.204Z,1.25
2023-02-11T07:40:15.238Z,1.21
2023-02-11T07:42:17.178Z,1.30
2023-02-11T07:44:19.202Z,1.15
2023-02-11T07:46:26.689Z,1.31
2023-02-11T07:48:28.664Z,1.21
2023-02-11T07:50:32.626Z,1.28
2023-02-11T07:52:34.567Z,1.36
2023-02-11T07:54:36.688Z,1.35
2023-02-11T07:56:44.746Z,1.29
2023-02-11T07:58:48.415Z,1.28
2023-02-11T08:00:52.467Z,1.31
2023-02-11T08:03:00.507Z,1.20
2023-02-11T08:05:03.690Z,1.05
2023-02-11T08:07:07.388Z,0.99
2023-02-11T08:09:14.145Z,1.07
2023-02-11T08:11:25.813Z,0.96
2023-02-11T08:13:27.635Z,0.93
2023-02-11T08:15:30.490Z,0.96
2023-02-11T08:17:32.532Z,0.83
2023-02-11T08:19:35.471Z,0.85
2023-02-11T08:21:37.896Z,0.93
2023-02-11T08:23:41.105Z,0.92
2023-02-11T08:25:42.984Z,0.87
2023-02-11T08:27:44.924Z,0.85
2023-02-11T08:29:49.153Z,0.88
2023-02-11T08:31:51.222Z,0.85
2023-02-11T08:33:59.808Z,0.88
2023-02-11T08:36:02.491Z,0.92
2023-02-11T08:38:04.368Z,0.89
2023-02-11T08:40:06.785Z,0.88
2023-02-11T08:42:09.760Z,0.87
2023-02-11T08:44:11.822Z,0.92
2023-02-11T08:46:18.937Z,0.90
2023-02-11T08:48:23.057Z,0.83
2023-02-11T08:50:28.601Z,0.96
2023-02-11T08:52:31.704Z,1.03
2023-02-11T08:54:33.745Z,1.02
2023-02-11T08:56:38.238Z,1.08
2023-02-11T08:58:42.924Z,1.03
2023-02-11T09:00:47.762Z,1.05
2023-02-11T09:02:49.836Z,1.01
2023-02-11T09:04:53.803Z,1.10
2023-02-11T09:06:57.411Z,1.08
2023-02-11T09:08:59.495Z,1.09
2023-02-11T09:11:01.536Z,1.09
2023-02-11T09:13:06.686Z,1.05
2023-02-11T09:15:09.280Z,1.07
2023-02-11T09:17:11.462Z,1.10
2023-02-11T09:19:13.467Z,1.11
2023-02-11T09:21:18.271Z,1.10
2023-02-11T09:23:20.254Z,1.18
2023-02-11T09:25:22.398Z,1.23
2023-02-11T09:27:25.379Z,1.29
2023-02-11T09:29:29.475Z,1.47
2023-02-11T09:31:34.176Z,1.46
2023-02-11T09:33:38.109Z,1.42
2023-02-11T09:35:41.104Z,1.45
2023-02-11T09:37:44.085Z,1.55
2023-02-11T09:39:47.203Z,1.46
2023-02-11T09:42:27.992Z,1.57
2023-02-11T09:44:37.061Z,1.41
2023-02-11T09:46:42.910Z,1.46
2023-02-11T09:48:48.195Z,1.54
2023-02-11T09:50:57.131Z,1.48
2023-02-11T09:53:04.951Z,1.58
2023-02-11T09:55:18.966Z,1.49
2023-02-11T09:57:28.605Z,1.58
2023-02-11T09:59:31.175Z,1.63
2023-02-11T10:01:44.819Z,1.55
2023-02-11T10:04:03.226Z,1.42
2023-02-11T10:06:20.458Z,1.67
2023-02-11T10:08:57.104Z,1.43
2023-02-11T10:11:31.228Z,1.59
2023-02-11T10:14:11.596Z,1.46
2023-02-11T10:16:26.864Z,1.49
2023-02-11T10:18:35.496Z,1.47
2023-02-11T10:20:47.197Z,1.56
2023-02-11T10:22:55.929Z,1.37
2023-02-11T10:25:02.314Z,1.43
2023-02-11T10:27:18.057Z,1.41
2023-02-11T10:29:37.570Z,1.43
2023-02-11T10:31:43.741Z,1.41
2023-02-11T10:34:05.019Z,1.44
2023-02-11T10:36:11.408Z,1.65
2023-02-11T10:38:13.604Z,1.51
2023-02-11T10:40:27.474Z,1.58
2023-02-11T10:42:30.944Z,1.51
2023-02-11T10:44:34.310Z,1.65
2023-02-11T10:46:40.458Z,1.67
2023-02-11T10:48:51.774Z,1.64
2023-02-11T10:51:07.644Z,1.79
2023-02-11T10:53:16.568Z,1.68
2023-02-11T10:55:24.069Z,1.69
2023-02-11T10:57:36.079Z,1.64
2023-02-11T10:59:41.030Z,1.77
2023-02-11T11:01:51.289Z,1.80
2023-02-11T11:03:53.533Z,1.79
2023-02-11T11:06:02.215Z,1.95
2023-02-11T11:08:09.921Z,1.87
2023-02-11T11:10:46.150Z,1.92
2023-02-11T11:12:49.687Z,1.81
2023-02-11T11:15:00.021Z,1.94
2023-02-11T11:17:02.093Z,1.91
2023-02-11T11:19:07.750Z,1.82
2023-02-11T11:21:20.813Z,1.94
2023-02-11T11:23:25.411Z,1.84
2023-02-11T11:25:29.841Z,1.93
2023-02-11T11:27:33.346Z,1.89
2023-02-11T11:29:41.389Z,1.93
2023-02-11T11:32:05.848Z,1.86
2023-02-11T11:34:35.585Z,1.82
2023-02-11T11:36:40.498Z,1.86
2023-02-11T11:38:52.798Z,2.01
2023-02-11T11:41:24.782Z,1.91
2023-02-11T11:43:26.561Z,1.88
2023-02-11T11:45:29.815Z,1.90
2023-02-11T11:47:43.584Z,1.94
2023-02-11T11:50:30.383Z,1.99
2023-02-11T11:52:32.425Z,1.93
2023-02-11T11:54:35.239Z,1.96
2023-02-11T11:56:46.994Z,1.92
2023-02-11T11:58:50.513Z,1.99
2023-02-11T12:01:19.869Z,1.98
2023-02-11T12:03:43.998Z,1.93
2023-02-11T12:05:55.911Z,2.10
2023-02-11T12:08:07.187Z,1.93
2023-02-11T12:10:15.073Z,1.98
2023-02-11T12:12:54.176Z,1.99
2023-02-11T12:15:10.779Z,1.94
2023-02-11T12:17:56.751Z,2.02
2023-02-11T12:20:26.452Z,2.02
2023-02-11T12:22:55.053Z,1.93
2023-02-11T12:25:22.804Z,2.07
2023-02-11T12:27:47.428Z,2.10
2023-02-11T12:29:52.009Z,1.98
2023-02-11T12:32:28.589Z,2.09
2023-02-11T12:34:57.235Z,2.12
2023-02-11T12:37:35.364Z,2.16
2023-02-11T12:39:50.523Z,2.13
2023-02-11T12:42:42.351Z,2.16
2023-02-11T12:44:53.288Z,2.19
2023-02-11T12:47:19.759Z,2.24
2023-02-11T12:49:51.145Z,2.28
2023-02-11T12:52:19.089Z,2.27
2023-02-11T12:54:47.350Z,2.36
2023-02-11T12:57:18.394Z,2.36
2023-02-11T12:59:46.991Z,2.54
2023-02-11T13:01:52.371Z,2.50
2023-02-11T13:04:30.640Z,2.45
2023-02-11T13:06:43.725Z,2.45
2023-02-11T13:09:01.614Z,2.54
2023-02-11T13:11:27.944Z,2.51
2023-02-11T13:13:43.514Z,2.62
2023-02-11T13:15:54.193Z,2.60
2023-02-11T13:18:27.113Z,2.65
2023-02-11T13:20:35.703Z,2.55
2023-02-11T13:22:49.324Z,2.66
2023-02-11T13:25:06.486Z,2.73
2023-02-11T13:27:44.328Z,2.73
2023-02-11T13:30:12.080Z,2.72
2023-02-11T13:32:18.332Z,2.74
2023-02-11T13:34:47.262Z,2.77
2023-02-11T13:36:56.286Z,2.68
2023-02-11T13:39:06.361Z,2.72
2023-02-11T13:41:30.490Z,2.68
2023-02-11T13:43:35.846Z,2.62
2023-02-11T13:45:46.540Z,2.58
2023-02-11T13:47:52.601Z,2.48
2023-02-11T13:50:02.693Z,2.33
2023-02-11T13:52:19.104Z,2.42
2023-02-11T13:54:45.866Z,2.44
2023-02-11T13:57:19.894Z,2.36
2023-02-11T13:59:28.515Z,2.33
2023-02-11T14:02:20.302Z,2.41
2023-02-11T14:04:44.397Z,2.34
2023-02-11T14:08:00.693Z,2.35
2023-02-11T14:10:04.670Z,2.36
2023-02-11T14:12:30.645Z,2.46
2023-02-11T14:14:34.186Z,2.42
2023-02-11T14:16:58.671Z,2.41
2023-02-11T14:19:02.682Z,2.43
2023-02-11T14:21:18.108Z,2.41
2023-02-11T14:23:28.753Z,2.43
2023-02-11T14:25:32.440Z,2.46
2023-02-11T14:27:54.839Z,2.54
2023-02-11T14:30:20.653Z,2.52
2023-02-11T14:33:01.922Z,2.46
2023-02-11T14:35:30.920Z,2.46
2023-02-11T14:37:53.598Z,2.54
2023-02-11T14:40:08.548Z,2.50
2023-02-11T14:42:23.258Z,2.53
2023-02-11T14:44:28.635Z,2.51
2023-02-11T14:46:33.317Z,2.34
2023-02-11T14:48:38.797Z,2.33
2023-02-11T14:50:52.243Z,2.27
2023-02-11T14:52:57.255Z,2.27
2023-02-11T14:55:18.130Z,2.29
2023-02-11T14:57:21.758Z,2.51
2023-02-11T14:59:24.448Z,2.63
2023-02-11T15:01:36.000Z,2.60
2023-02-11T15:03:41.857Z,2.73
2023-02-11T15:05:44.840Z,2.72
2023-02-11T15:07:50.446Z,2.83
2023-02-11T15:09:55.219Z,2.77
2023-02-11T15:11:59.558Z,2.80
2023-02-11T15:14:24.624Z,2.82
2023-02-11T15:16:28.876Z,2.85
2023-02-11T15:18:39.819Z,2.95
2023-02-11T15:20:42.494Z,2.58
2023-02-11T15:22:46.746Z,2.46
2023-02-11T15:25:04.497Z,2.43
2023-02-11T15:27:18.854Z,2.38
2023-02-11T15:29:25.911Z,2.36
2023-02-11T15:31:38.981Z,2.53
2023-02-11T15:33:41.614Z,2.57
2023-02-11T15:35:45.124Z,2.64
2023-02-11T15:37:50.616Z,2.79
2023-02-11T15:39:54.723Z,2.81
2023-02-11T15:41:57.032Z,2.71
2023-02-11T15:43:59.878Z,2.84
2023-02-11T15:46:03.170Z,2.82
2023-02-11T15:48:22.161Z,2.78
2023-02-11T15:50:31.486Z,2.81
2023-02-11T15:52:34.705Z,2.74
2023-02-11T15:54:38.632Z,2.80
2023-02-11T15:56:47.071Z,2.91
2023-02-11T15:58:54.775Z,2.87
2023-02-11T16:01:00.481Z,2.85
2023-02-11T16:03:03.822Z,2.84
2023-02-11T16:05:09.895Z,2.93
2023-02-11T16:07:43.883Z,2.94
2023-02-11T16:09:47.578Z,2.90
2023-02-11T16:11:59.733Z,2.93
2023-02-11T16:14:32.887Z,2.94
2023-02-11T16:16:37.508Z,2.93
2023-02-11T16:19:03.259Z,2.94
2023-02-11T16:21:14.897Z,3.00
2023-02-11T16:23:27.493Z,3.03
2023-02-11T16:25:30.332Z,2.99
2023-02-11T16:27:42.291Z,2.95
2023-02-11T16:29:49.589Z,2.96
2023-02-11T16:31:54.525Z,2.97
2023-02-11T16:33:58.437Z,2.95
2023-02-11T16:36:02.771Z,2.99
2023-02-11T16:38:05.833Z,2.97
2023-02-11T16:40:12.877Z,3.05
2023-02-11T16:42:17.894Z,3.05
2023-02-11T16:44:21.435Z,3.04
2023-02-11T16:46:24.323Z,3.05
2023-02-11T16:48:27.493Z,3.09
2023-02-11T16:50:30.319Z,3.12
2023-02-11T16:52:33.355Z,3.04
2023-02-11T16:54:37.679Z,3.02
2023-02-11T16:59:02.212Z,3.17
2023-02-11T17:01:07.291Z,3.25
2023-02-11T17:03:17.191Z,3.16
2023-02-11T17:05:23.679Z,3.18
2023-02-11T17:07:26.778Z,3.15
2023-02-11T17:09:31.090Z,3.15
2023-02-11T17:14:06.628Z,3.13
2023-02-11T17:16:23.132Z,3.19
2023-02-11T17:19:57.476Z,3.13
2023-02-11T17:22:06.849Z,3.19
2023-02-11T17:24:10.510Z,3.16
2023-02-11T17:26:15.098Z,3.14
2023-02-11T17:28:18.388Z,3.18
2023-02-11T17:30:20.836Z,3.11
2023-02-11T17:32:23.795Z,3.16
2023-02-11T17:34:29.894Z,3.18
2023-02-11T17:36:33.930Z,3.16
2023-02-11T17:38:38.159Z,3.11
2023-02-11T17:40:41.858Z,3.12
2023-02-11T17:42:44.898Z,3.18
2023-02-11T17:44:48.899Z,3.15
2023-02-11T17:46:51.819Z,3.13
2023-02-11T17:48:55.001Z,3.17
2023-02-11T17:51:01.226Z,3.15
2023-02-11T17:53:08.340Z,3.22
2023-02-11T17:57:29.775Z,3.17
2023-02-11T17:59:36.019Z,3.15
2023-02-11T18:01:40.248Z,3.18
2023-02-11T18:03:43.223Z,3.23
2023-02-11T18:05:46.804Z,3.15
2023-02-11T18:07:49.485Z,3.14
2023-02-11T18:09:53.671Z,3.19
2023-02-11T18:11:56.421Z,3.22
2023-02-11T18:14:14.259Z,3.20
2023-02-11T18:16:19.331Z,3.23
2023-02-11T18:18:23.684Z,3.19
2023-02-11T18:20:28.283Z,3.18
2023-02-11T18:22:34.417Z,3.25
2023-02-11T18:24:38.452Z,3.21
2023-02-11T18:26:42.452Z,3.23
2023-02-11T18:28:46.182Z,3.29
2023-02-11T18:30:49.359Z,3.23
2023-02-11T18:32:58.177Z,3.28
2023-02-11T18:35:00.789Z,3.36
2023-02-11T18:37:04.599Z,3.32
2023-02-11T18:39:07.119Z,3.37
2023-02-11T18:41:13.433Z,3.34
2023-02-11T18:43:16.104Z,3.30
2023-02-11T18:45:20.922Z,3.39
2023-02-11T18:47:24.450Z,3.39
2023-02-11T18:49:28.170Z,3.34
2023-02-11T18:51:33.054Z,3.31
2023-02-11T18:53:36.108Z,3.35
2023-02-11T18:55:44.672Z,3.35
2023-02-11T18:57:47.668Z,3.37
2023-02-11T18:59:51.545Z,3.35
2023-02-11T19:01:59.136Z,3.44
2023-02-11T19:04:05.213Z,3.38
2023-02-11T19:06:10.665Z,3.46
2023-02-11T19:08:14.285Z,3.42
2023-02-11T19:10:18.551Z,3.43
2023-02-11T19:12:21.655Z,3.44
2023-02-11T19:14:30.084Z,3.47
2023-02-11T19:16:33.043Z,3.45
2023-02-11T19:18:37.294Z,3.44
2023-02-11T19:20:42.614Z,3.40
2023-02-11T19:22:46.153Z,3.38
2023-02-11T19:24:52.034Z,3.38
2023-02-11T19:26:59.251Z,3.39
2023-02-11T19:29:03.489Z,3.41
2023-02-11T19:31:08.513Z,3.41
2023-02-11T19:33:12.048Z,3.43
2023-02-11T19:35:16.224Z,3.48
2023-02-11T19:37:21.390Z,3.56
2023-02-11T19:39:27.864Z,3.46
2023-02-11T19:41:32.733Z,3.44
2023-02-11T19:43:35.625Z,3.43
2023-02-11T19:45:44.602Z,3.52
2023-02-11T19:47:46.843Z,3.56
2023-02-11T19:49:52.112Z,3.62
2023-02-11T19:51:58.111Z,3.70
2023-02-11T19:54:02.169Z,3.70
2023-02-11T19:56:11.353Z,3.67
2023-02-11T19:58:14.681Z,3.70
2023-02-11T20:00:19.158Z,3.75
2023-02-11T20:02:26.262Z,3.77
2023-02-11T20:04:32.939Z,3.71
2023-02-11T20:06:37.426Z,3.71
2023-02-11T20:08:42.849Z,3.70
2023-02-11T20:10:45.282Z,3.73
2023-02-11T20:12:52.348Z,3.68
2023-02-11T20:14:55.119Z,3.64
2023-02-11T20:16:58.075Z,3.61
2023-02-11T20:19:01.348Z,3.58
2023-02-11T20:21:08.755Z,3.55
2023-02-11T20:23:12.452Z,3.57
2023-02-11T20:25:16.850Z,3.51
2023-02-11T20:27:20.260Z,3.48
2023-02-11T20:29:25.379Z,3.47
2023-02-11T20:31:29.205Z,3.53
2023-02-11T20:33:33.738Z,3.52
2023-02-11T20:35:45.336Z,3.54
2023-02-11T20:37:50.386Z,3.55
2023-02-11T20:39:54.356Z,3.46
2023-02-11T20:41:59.692Z,3.45
2023-02-11T20:44:05.297Z,3.45
2023-02-11T20:46:08.595Z,3.60
2023-02-11T20:48:11.729Z,3.53
2023-02-11T20:50:20.351Z,3.49
2023-02-11T20:52:23.415Z,3.52
2023-02-11T20:54:26.813Z,3.52
2023-02-11T20:56:40.001Z,3.50
2023-02-11T20:58:42.951Z,3.45
2023-02-11T21:00:45.918Z,3.43
2023-02-11T21:02:53.336Z,3.41
2023-02-11T21:04:56.463Z,3.34
2023-02-11T21:07:02.210Z,3.33
2023-02-11T21:09:10.333Z,3.32
2023-02-11T21:11:13.224Z,3.30
2023-02-11T21:13:16.431Z,3.32
2023-02-11T21:15:19.228Z,3.34
2023-02-11T21:17:22.956Z,3.36
2023-02-11T21:19:27.080Z,3.40
2023-02-11T21:21:31.658Z,3.38
2023-02-11T21:23:35.451Z,3.37
2023-02-11T21:25:40.547Z,3.40
2023-02-11T21:27:46.920Z,3.27
2023-02-11T21:29:54.691Z,3.32
2023-02-11T21:32:03.802Z,3.36
2023-02-11T21:34:11.831Z,3.39
2023-02-11T21:36:15.758Z,3.39
2023-02-11T21:38:18.419Z,3.57
2023-02-11T21:40:27.887Z,3.58
2023-02-11T21:42:30.383Z,3.70
2023-02-11T21:44:34.291Z,3.70
2023-02-11T21:46:36.858Z,3.76
2023-02-11T21:48:40.632Z,3.70
2023-02-11T21:50:46.765Z,3.69
2023-02-11T21:52:55.226Z,3.54
2023-02-11T21:54:57.864Z,3.52
2023-02-11T21:57:03.314Z,3.48
2023-02-11T21:59:06.955Z,3.45
2023-02-11T22:01:19.447Z,3.33
2023-02-11T22:03:23.120Z,3.27
2023-02-11T22:05:25.929Z,3.23
2023-02-11T22:07:37.131Z,3.20
2023-02-11T22:09:41.113Z,3.13
2023-02-11T22:11:44.372Z,3.13
2023-02-11T22:13:47.147Z,3.02
2023-02-11T22:16:01.920Z,2.99
2023-02-11T22:18:04.176Z,2.85
2023-02-11T22:20:08.798Z,2.81
2023-02-11T22:22:19.872Z,2.81
2023-02-11T22:24:21.993Z,2.77
2023-02-11T22:26:26.120Z,2.69
2023-02-11T22:28:32.421Z,2.70
2023-02-11T22:30:34.605Z,2.70
2023-02-11T22:32:36.602Z,2.70
2023-02-11T22:34:39.241Z,2.65
2023-02-11T22:36:42.411Z,2.66
2023-02-11T22:38:44.581Z,2.67
2023-02-11T22:40:47.615Z,2.67
2023-02-11T22:42:49.626Z,2.62
2023-02-11T22:44:51.786Z,2.58
2023-02-11T22:46:54.143Z,2.60
2023-02-11T22:48:56.947Z,2.59
2023-02-11T22:51:08.684Z,2.59
2023-02-11T22:53:41.161Z,2.44
2023-02-11T22:55:45.326Z,2.49
2023-02-11T22:58:00.746Z,2.45
2023-02-11T23:01:00.957Z,2.38
2023-02-11T23:03:32.213Z,2.38
2023-02-11T23:06:17.168Z,2.34
2023-02-11T23:08:22.064Z,2.32
2023-02-11T23:10:24.957Z,2.24
2023-02-11T23:12:29.069Z,2.30
2023-02-11T23:14:45.801Z,2.13
2023-02-11T23:16:55.377Z,2.26
2023-02-11T23:19:05.564Z,2.18
2023-02-11T23:21:37.227Z,2.17
2023-02-11T23:23:45.421Z,2.08
2023-02-11T23:25:57.451Z,2.03
2023-02-11T23:28:08.898Z,1.84
2023-02-11T23:30:16.849Z,1.76
2023-02-11T23:32:29.807Z,1.74
2023-02-11T23:34:31.734Z,1.61
2023-02-11T23:36:40.727Z,1.42
2023-02-11T23:38:43.168Z,1.40
2023-02-11T23:40:45.096Z,1.24
2023-02-11T23:42:49.967Z,1.08
2023-02-11T23:44:51.960Z,1.13
2023-02-11T23:46:54.013Z,0.99
2023-02-11T23:48:56.357Z,0.86
2023-02-11T23:50:59.460Z,0.90
2023-02-11T23:53:01.433Z,0.80
2023-02-11T23:55:09.946Z,0.70
2023-02-11T23:57:14.247Z,0.75
2023-02-11T23:59:16.198Z,0.83
